createdAt,value
2023-10-13T00:02:00.201Z,42.15
2023-10-13T00:04:27.300Z,41.88
2023-10-13T00:07:03.742Z,40.40
2023-10-13T00:09:33.519Z,40.95
2023-10-13T00:12:00.831Z,39.42
2023-10-13T00:14:34.328Z,40.67
2023-10-13T00:17:05.830Z,40.88
2023-10-13T00:19:46.065Z,40.78
2023-10-13T00:22:16.777Z,41.42
2023-10-13T00:24:46.447Z,43.53
2023-10-13T00:27:31.396Z,40.53
2023-10-13T00:30:18.861Z,41.30
2023-10-13T00:32:48.095Z,41.95
2023-10-13T00:35:26.162Z,40.60
2023-10-13T00:37:54.528Z,40.22
2023-10-13T00:40:31.139Z,39.95
2023-10-13T00:43:21.082Z,41.28
2023-10-13T00:45:56.303Z,40.05
2023-10-13T00:48:30.465Z,42.08
2023-10-13T00:51:03.954Z,40.78
2023-10-13T00:53:34.678Z,40.00
2023-10-13T00:56:08.670Z,38.53
2023-10-13T00:58:36.058Z,39.83
2023-10-13T01:01:21.457Z,39.92
2023-10-13T01:04:01.683Z,40.58
2023-10-13T01:06:28.685Z,40.22
2023-10-13T01:09:19.844Z,39.40
2023-10-13T01:11:54.070Z,39.53
2023-10-13T01:14:21.557Z,39.92
2023-10-13T01:16:54.162Z,37.60
2023-10-13T01:19:25.866Z,38.45
2023-10-13T01:21:58.512Z,38.97
2023-10-13T01:26:53.935Z,36.53
2023-10-13T01:29:20.669Z,36.22
2023-10-13T01:31:47.806Z,37.30
2023-10-13T01:34:20.811Z,35.08
2023-10-13T01:36:47.509Z,34.05
2023-10-13T01:39:17.840Z,33.92
2023-10-13T01:41:44.588Z,33.47
2023-10-13T01:44:15.826Z,33.53
2023-10-13T01:46:43.714Z,32.53
2023-10-13T01:49:10.252Z,32.95
2023-10-13T01:51:36.731Z,31.38
2023-10-13T01:54:04.273Z,31.42
2023-10-13T01:56:31.385Z,30.67
2023-10-13T01:58:58.139Z,31.08
2023-10-13T02:01:27.805Z,30.55
2023-10-13T02:04:05.893Z,30.13
2023-10-13T02:06:34.071Z,29.23
2023-10-13T02:09:18.015Z,29.45
2023-10-13T02:11:48.307Z,29.02
2023-10-13T02:14:18.106Z,27.85
2023-10-13T02:16:48.233Z,29.13
2023-10-13T02:19:17.118Z,28.25
2023-10-13T02:21:45.876Z,27.27
2023-10-13T02:24:19.251Z,26.90
2023-10-13T02:26:46.250Z,27.40
2023-10-13T02:29:14.785Z,26.85
2023-10-13T02:31:43.138Z,26.75
2023-10-13T02:34:09.975Z,26.25
2023-10-13T02:36:37.513Z,26.83
2023-10-13T02:39:08.704Z,26.55
2023-10-13T02:41:38.748Z,27.05
2023-10-13T02:44:11.461Z,26.17
2023-10-13T02:46:40.749Z,25.73
2023-10-13T02:49:11.914Z,26.42
2023-10-13T02:51:43.006Z,26.17
2023-10-13T02:54:19.413Z,25.05
2023-10-13T02:56:50.608Z,25.45
2023-10-13T02:59:20.989Z,25.13
2023-10-13T03:01:47.861Z,24.50
2023-10-13T03:04:14.548Z,25.33
2023-10-13T03:06:43.794Z,24.20
2023-10-13T03:09:20.714Z,24.95
2023-10-13T03:11:51.166Z,25.17
2023-10-13T03:14:48.024Z,24.65
2023-10-13T03:17:19.832Z,24.27
2023-10-13T03:19:52.989Z,23.70
2023-10-13T03:22:19.669Z,23.75
2023-10-13T03:24:49.158Z,23.85
2023-10-13T03:27:24.375Z,22.65
2023-10-13T03:29:55.782Z,24.27
2023-10-13T03:32:23.130Z,23.35
2023-10-13T03:35:01.947Z,22.33
2023-10-13T03:37:39.349Z,24.70
2023-10-13T03:40:23.007Z,22.45
2023-10-13T03:43:05.889Z,23.65
2023-10-13T03:45:43.958Z,22.25
2023-10-13T03:48:12.466Z,22.25
2023-10-13T03:50:58.871Z,22.95
2023-10-13T03:53:26.749Z,23.35
2023-10-13T03:56:09.000Z,22.55
2023-10-13T03:58:47.327Z,22.33
2023-10-13T04:01:18.031Z,21.70
2023-10-13T04:04:04.848Z,21.83
2023-10-13T04:06:47.829Z,21.50
2023-10-13T04:09:33.108Z,22.42
2023-10-13T04:12:04.419Z,21.58
2023-10-13T04:14:54.574Z,22.60
2023-10-13T04:17:25.002Z,21.33
2023-10-13T04:20:07.223Z,22.10
2023-10-13T04:22:51.159Z,20.88
2023-10-13T04:25:44.107Z,21.02
2023-10-13T04:28:17.377Z,20.25
2023-10-13T04:31:00.931Z,21.42
2023-10-13T04:33:35.490Z,20.20
2023-10-13T04:36:22.735Z,20.85
2023-10-13T04:39:05.401Z,20.77
2023-10-13T04:44:44.932Z,20.95
2023-10-13T04:47:19.324Z,20.40
2023-10-13T04:49:48.652Z,21.13
2023-10-13T04:52:35.189Z,20.88
2023-10-13T04:55:17.437Z,20.98
2023-10-13T04:57:46.796Z,21.92
2023-10-13T05:00:20.061Z,20.95
2023-10-13T05:03:03.088Z,21.42
2023-10-13T05:05:48.297Z,21.20
2023-10-13T05:08:33.684Z,21.10
2023-10-13T05:11:23.179Z,21.10
2023-10-13T05:14:21.967Z,21.27
2023-10-13T05:17:07.584Z,20.00
2023-10-13T05:19:52.757Z,20.38
2023-10-13T05:22:37.719Z,19.88
2023-10-13T05:25:23.257Z,19.60
2023-10-13T05:28:12.342Z,19.95
2023-10-13T05:31:01.738Z,18.65
2023-10-13T05:33:54.051Z,19.15
2023-10-13T05:36:38.975Z,17.15
2023-10-13T05:39:23.820Z,16.52
2023-10-13T05:42:08.624Z,15.02
2023-10-13T05:44:39.547Z,12.82
2023-10-13T05:47:44.212Z,12.63
2023-10-13T05:50:15.697Z,11.00
2023-10-13T05:52:56.239Z,10.40
2023-10-13T05:55:45.491Z,10.40
2023-10-13T05:58:31.381Z,9.93
2023-10-13T06:01:16.480Z,9.95
2023-10-13T06:04:01.698Z,9.95
2023-10-13T06:06:46.904Z,9.82
2023-10-13T06:09:31.750Z,10.18
2023-10-13T06:12:16.782Z,10.07
2023-10-13T06:15:07.690Z,10.30
2023-10-13T06:17:52.670Z,11.23
2023-10-13T06:20:37.508Z,11.30
2023-10-13T06:23:22.838Z,11.55
2023-10-13T06:26:11.578Z,10.95
2023-10-13T06:28:44.365Z,11.98
2023-10-13T06:31:22.691Z,11.95
2023-10-13T06:33:49.810Z,10.75
2023-10-13T06:36:16.362Z,11.18
2023-10-13T06:38:42.836Z,10.88
2023-10-13T06:41:09.449Z,10.75
2023-10-13T06:43:44.237Z,10.07
2023-10-13T06:46:17.036Z,10.70
2023-10-13T06:48:44.810Z,10.50
2023-10-13T06:51:22.666Z,10.98
2023-10-13T06:53:49.911Z,9.98
2023-10-13T06:56:23.045Z,9.93
2023-10-13T06:58:52.518Z,10.10
2023-10-13T07:01:24.572Z,9.07
2023-10-13T07:03:54.664Z,9.65
2023-10-13T07:06:24.279Z,10.00
2023-10-13T07:08:53.585Z,8.98
2023-10-13T07:11:35.089Z,9.25
2023-10-13T07:14:12.503Z,9.38
2023-10-13T07:16:47.613Z,8.65
2023-10-13T07:19:20.674Z,8.82
2023-10-13T07:21:49.265Z,9.63
2023-10-13T07:24:17.026Z,9.32
2023-10-13T07:26:58.799Z,9.10
2023-10-13T07:29:25.964Z,8.77
2023-10-13T07:31:52.702Z,9.13
2023-10-13T07:34:32.836Z,8.07
2023-10-13T07:37:04.662Z,9.25
2023-10-13T07:39:36.210Z,8.63
2023-10-13T07:42:06.932Z,8.55
2023-10-13T07:44:34.479Z,8.43
2023-10-13T07:47:06.008Z,7.30
2023-10-13T07:49:42.073Z,7.60
2023-10-13T07:52:31.494Z,7.35
2023-10-13T07:55:21.550Z,7.50
2023-10-13T07:58:00.077Z,7.45
2023-10-13T08:00:39.415Z,7.82
2023-10-13T08:03:18.259Z,7.93
2023-10-13T08:06:11.942Z,8.30
2023-10-13T08:08:41.816Z,7.38
2023-10-13T08:11:24.242Z,7.10
2023-10-13T08:14:08.203Z,7.53
2023-10-13T08:16:55.487Z,7.20
2023-10-13T08:19:28.981Z,6.55
2023-10-13T08:22:00.382Z,6.70
2023-10-13T08:24:50.583Z,6.28
2023-10-13T08:27:37.995Z,6.70
2023-10-13T08:30:23.652Z,5.90
2023-10-13T08:32:56.889Z,6.25
2023-10-13T08:35:24.760Z,6.68
2023-10-13T08:37:54.196Z,6.57
2023-10-13T08:40:42.575Z,6.65
2023-10-13T08:43:14.941Z,6.85
2023-10-13T08:48:17.827Z,7.00
2023-10-13T08:50:50.278Z,6.47
2023-10-13T08:53:29.517Z,6.88
2023-10-13T08:56:15.079Z,5.70
2023-10-13T08:58:54.516Z,5.90
2023-10-13T09:01:40.903Z,6.40
2023-10-13T09:04:28.479Z,5.53
2023-10-13T09:07:08.735Z,5.93
2023-10-13T09:09:41.261Z,5.38
2023-10-13T09:12:33.656Z,5.80
2023-10-13T09:15:18.417Z,5.20
2023-10-13T09:17:52.258Z,5.60
2023-10-13T09:20:40.888Z,5.60
2023-10-13T09:23:25.577Z,5.63
2023-10-13T09:25:59.001Z,5.22
2023-10-13T09:28:29.416Z,5.40
2023-10-13T09:31:00.091Z,4.80
2023-10-13T09:33:37.069Z,4.93
2023-10-13T09:36:07.896Z,5.13
2023-10-13T09:38:35.679Z,5.18
2023-10-13T09:41:19.039Z,4.90
2023-10-13T09:43:47.225Z,5.03
2023-10-13T09:46:24.721Z,4.97
2023-10-13T09:49:05.415Z,4.13
2023-10-13T09:51:35.422Z,4.60
2023-10-13T09:54:35.712Z,4.82
2023-10-13T09:57:12.906Z,4.75
2023-10-13T09:59:57.025Z,4.75
2023-10-13T10:02:27.102Z,4.78
2023-10-13T10:05:13.746Z,4.72
2023-10-13T10:07:45.302Z,4.85
2023-10-13T10:10:12.398Z,4.60
2023-10-13T10:12:40.046Z,4.70
2023-10-13T10:15:44.669Z,5.13
2023-10-13T10:18:24.126Z,4.65
2023-10-13T10:20:55.995Z,4.68
2023-10-13T10:23:25.206Z,4.47
2023-10-13T10:25:52.916Z,4.47
2023-10-13T10:28:21.181Z,4.30
2023-10-13T10:30:48.065Z,4.95
2023-10-13T10:33:16.582Z,5.30
2023-10-13T10:35:44.214Z,5.07
2023-10-13T10:38:35.269Z,4.72
2023-10-13T10:41:04.892Z,4.80
2023-10-13T10:43:43.582Z,5.13
2023-10-13T10:46:19.930Z,4.82
2023-10-13T10:48:46.813Z,4.85
2023-10-13T10:51:24.909Z,5.05
2023-10-13T10:53:54.202Z,5.28
2023-10-13T10:56:37.923Z,4.78
2023-10-13T10:59:06.254Z,5.22
2023-10-13T11:01:39.631Z,5.15
2023-10-13T11:04:09.861Z,5.43
2023-10-13T11:06:47.164Z,4.68
2023-10-13T11:09:22.309Z,5.07
2023-10-13T11:11:53.729Z,5.25
2023-10-13T11:14:28.570Z,5.50
2023-10-13T11:17:01.174Z,5.10
2023-10-13T11:19:38.830Z,4.90
2023-10-13T11:22:30.208Z,4.85
2023-10-13T11:25:00.216Z,5.30
2023-10-13T11:27:45.480Z,5.00
2023-10-13T11:30:15.793Z,5.75
2023-10-13T11:32:43.832Z,5.93
2023-10-13T11:35:21.545Z,5.35
2023-10-13T11:37:57.554Z,5.13
2023-10-13T11:40:43.282Z,5.00
2023-10-13T11:43:16.655Z,5.32
2023-10-13T11:45:56.029Z,4.93
2023-10-13T11:48:37.869Z,5.53
2023-10-13T11:51:08.514Z,4.55
2023-10-13T11:53:36.107Z,4.93
2023-10-13T11:56:09.614Z,4.95
2023-10-13T11:58:36.771Z,5.53
2023-10-13T12:01:29.418Z,5.53
2023-10-13T12:04:17.201Z,5.60
2023-10-13T12:06:44.991Z,5.68
2023-10-13T12:09:17.555Z,4.70
2023-10-13T12:11:45.956Z,5.57
2023-10-13T12:14:18.070Z,5.85
2023-10-13T12:16:49.759Z,5.55
2023-10-13T12:19:17.809Z,5.50
2023-10-13T12:21:49.587Z,5.07
2023-10-13T12:24:34.332Z,5.45
2023-10-13T12:27:00.768Z,5.22
2023-10-13T12:29:30.463Z,6.13
2023-10-13T12:32:09.719Z,5.22
2023-10-13T12:34:55.450Z,5.82
2023-10-13T12:37:37.354Z,5.50
2023-10-13T12:40:26.477Z,5.50
2023-10-13T12:43:11.771Z,5.50
2023-10-13T12:46:04.113Z,5.50
2023-10-13T12:48:50.469Z,5.80
2023-10-13T12:51:32.744Z,6.03
2023-10-13T12:54:17.879Z,5.63
2023-10-13T12:56:44.352Z,5.43
2023-10-13T12:59:14.602Z,5.47
2023-10-13T13:01:44.411Z,5.63
2023-10-13T13:04:34.331Z,6.20
2023-10-13T13:07:01.020Z,5.40
2023-10-13T13:09:27.678Z,5.88
2023-10-13T13:11:58.554Z,6.15
2023-10-13T13:14:31.879Z,5.45
2023-10-13T13:17:05.699Z,6.07
2023-10-13T13:19:42.716Z,6.25
2023-10-13T13:22:13.470Z,5.85
2023-10-13T13:24:46.790Z,5.68
2023-10-13T13:27:21.084Z,5.30
2023-10-13T13:29:47.872Z,5.88
2023-10-13T13:32:24.981Z,5.25
2023-10-13T13:35:08.939Z,5.03
2023-10-13T13:37:35.974Z,5.60
2023-10-13T13:40:17.487Z,5.55
2023-10-13T13:42:44.720Z,5.38
2023-10-13T13:45:22.652Z,5.22
2023-10-13T13:47:54.553Z,5.78
2023-10-13T13:50:25.974Z,5.22
2023-10-13T13:52:56.943Z,5.37
2023-10-13T13:55:24.350Z,5.38
2023-10-13T13:57:51.825Z,5.05
2023-10-13T14:00:31.351Z,5.20
2023-10-13T14:02:59.125Z,5.30
2023-10-13T14:05:25.748Z,4.78
2023-10-13T14:07:52.288Z,5.70
2023-10-13T14:10:32.814Z,5.30
2023-10-13T14:13:21.877Z,5.72
2023-10-13T14:15:48.345Z,5.32
2023-10-13T14:18:18.780Z,5.22
2023-10-13T14:20:45.578Z,5.35
2023-10-13T14:23:14.610Z,5.72
2023-10-13T14:25:45.666Z,5.55
2023-10-13T14:28:19.031Z,5.33
2023-10-13T14:30:45.942Z,5.70
2023-10-13T14:33:12.406Z,5.55
2023-10-13T14:35:38.860Z,5.45
2023-10-13T14:38:05.376Z,5.80
2023-10-13T14:40:32.000Z,5.70
2023-10-13T14:42:58.547Z,5.88
2023-10-13T14:45:25.170Z,5.70
2023-10-13T14:47:53.841Z,5.97
2023-10-13T14:50:21.012Z,5.47
2023-10-13T14:52:51.499Z,5.47
2023-10-13T14:55:20.962Z,6.15
2023-10-13T14:57:51.251Z,5.15
2023-10-13T15:00:26.247Z,5.47
2023-10-13T15:02:54.238Z,5.00
2023-10-13T15:05:21.088Z,6.00
2023-10-13T15:07:47.687Z,5.50
2023-10-13T15:10:17.476Z,5.25
2023-10-13T15:12:45.692Z,5.57
2023-10-13T15:15:17.020Z,5.78
2023-10-13T15:17:44.395Z,6.07
2023-10-13T15:20:12.417Z,5.57
2023-10-13T15:22:39.165Z,5.30
2023-10-13T15:25:17.991Z,5.13
2023-10-13T15:27:51.294Z,5.25
2023-10-13T15:30:32.036Z,5.53
2023-10-13T15:32:58.651Z,5.43
2023-10-13T15:35:29.556Z,5.82
2023-10-13T15:37:56.934Z,5.45
2023-10-13T15:40:25.086Z,5.35
2023-10-13T15:42:51.552Z,4.97
2023-10-13T15:45:18.214Z,5.32
2023-10-13T15:50:21.893Z,5.38
2023-10-13T15:52:49.050Z,5.20
2023-10-13T15:55:16.295Z,5.72
2023-10-13T15:57:42.833Z,5.07
2023-10-13T16:00:24.652Z,5.22
2023-10-13T16:02:58.336Z,5.57
2023-10-13T16:05:36.128Z,5.53
2023-10-13T16:08:04.461Z,4.93
2023-10-13T16:10:30.947Z,5.40
2023-10-13T16:13:00.349Z,5.10
2023-10-13T16:15:27.008Z,5.40
2023-10-13T16:17:54.712Z,5.90
2023-10-13T16:20:22.060Z,4.97
2023-10-13T16:22:49.131Z,5.07
2023-10-13T16:25:20.117Z,5.50
2023-10-13T16:27:47.503Z,5.47
2023-10-13T16:30:20.423Z,5.70
2023-10-13T16:32:47.357Z,5.95
2023-10-13T16:35:17.278Z,5.40
2023-10-13T16:37:46.280Z,5.80
2023-10-13T16:40:16.714Z,5.72
2023-10-13T16:42:43.208Z,5.72
2023-10-13T16:45:16.146Z,5.30
2023-10-13T16:47:43.796Z,5.55
2023-10-13T16:50:23.387Z,5.65
2023-10-13T16:52:50.196Z,5.38
2023-10-13T16:55:21.010Z,4.70
2023-10-13T16:57:51.530Z,6.03
2023-10-13T17:00:19.809Z,5.32
2023-10-13T17:02:47.038Z,5.50
2023-10-13T17:05:15.067Z,5.60
2023-10-13T17:07:41.500Z,4.97
2023-10-13T17:10:12.298Z,5.05
2023-10-13T17:12:39.229Z,5.35
2023-10-13T17:15:14.840Z,5.30
2023-10-13T17:17:45.359Z,5.40
2023-10-13T17:20:12.127Z,5.65
2023-10-13T17:22:38.651Z,5.38
2023-10-13T17:25:08.299Z,4.95
2023-10-13T17:27:39.109Z,5.38
2023-10-13T17:30:09.992Z,5.45
2023-10-13T17:32:40.051Z,5.03
2023-10-13T17:35:13.154Z,5.45
2023-10-13T17:37:43.599Z,5.55
2023-10-13T17:40:16.715Z,5.50
2023-10-13T17:42:44.285Z,5.25
2023-10-13T17:45:11.205Z,5.45
2023-10-13T17:47:37.964Z,5.47
2023-10-13T17:50:05.009Z,6.32
2023-10-13T17:52:31.519Z,5.15
2023-10-13T17:54:57.999Z,5.78
2023-10-13T17:57:24.900Z,5.72
2023-10-13T17:59:51.404Z,5.60
2023-10-13T18:02:18.250Z,5.78
2023-10-13T18:04:44.769Z,5.70
2023-10-13T18:07:12.595Z,5.85
2023-10-13T18:09:41.544Z,5.68
2023-10-13T18:12:09.412Z,5.72
2023-10-13T18:14:37.309Z,5.97
2023-10-13T18:17:06.706Z,5.65
2023-10-13T18:19:34.942Z,5.07
2023-10-13T18:22:03.149Z,5.43
2023-10-13T18:24:30.772Z,5.53
2023-10-13T18:27:01.472Z,6.20
2023-10-13T18:29:28.053Z,6.60
2023-10-13T18:31:54.546Z,6.07
2023-10-13T18:34:21.241Z,5.60
2023-10-13T18:36:48.098Z,6.13
2023-10-13T18:39:19.717Z,6.35
2023-10-13T18:41:49.433Z,5.88
2023-10-13T18:44:16.069Z,5.82
2023-10-13T18:46:42.719Z,6.10
2023-10-13T18:49:11.977Z,6.30
2023-10-13T18:51:38.774Z,5.78
2023-10-13T18:54:08.774Z,6.35
2023-10-13T18:56:35.459Z,6.38
2023-10-13T18:59:03.989Z,5.82
2023-10-13T19:01:31.370Z,6.32
2023-10-13T19:04:02.963Z,6.05
2023-10-13T19:06:32.419Z,5.82
2023-10-13T19:08:58.930Z,6.90
2023-10-13T19:11:25.890Z,6.18
2023-10-13T19:13:53.749Z,6.10
2023-10-13T19:16:26.919Z,6.47
2023-10-13T19:18:54.704Z,6.03
2023-10-13T19:21:21.729Z,6.22
2023-10-13T19:23:52.616Z,6.40
2023-10-13T19:26:25.588Z,5.55
2023-10-13T19:28:56.260Z,6.57
2023-10-13T19:31:29.511Z,6.40
2023-10-13T19:33:58.255Z,6.68
2023-10-13T19:36:24.803Z,6.38
2023-10-13T19:38:52.254Z,6.63
2023-10-13T19:41:26.585Z,6.18
2023-10-13T19:44:03.585Z,6.55
2023-10-13T19:46:33.767Z,6.90
2023-10-13T19:49:04.365Z,6.07
2023-10-13T19:51:31.781Z,6.88
2023-10-13T19:54:01.463Z,6.45
2023-10-13T19:56:29.723Z,7.13
2023-10-13T19:58:56.590Z,6.50
2023-10-13T20:01:24.370Z,7.13
2023-10-13T20:03:57.614Z,6.68
2023-10-13T20:06:26.978Z,7.80
2023-10-13T20:08:55.475Z,6.82
2023-10-13T20:11:31.936Z,6.82
2023-10-13T20:13:58.340Z,6.57
2023-10-13T20:16:25.286Z,7.07
2023-10-13T20:18:56.205Z,6.78
2023-10-13T20:21:26.507Z,7.07
2023-10-13T20:23:55.665Z,6.88
2023-10-13T20:26:22.556Z,7.25
2023-10-13T20:28:48.976Z,7.32
2023-10-13T20:31:15.539Z,6.90
2023-10-13T20:33:44.608Z,7.55
2023-10-13T20:36:11.923Z,7.53
2023-10-13T20:38:38.536Z,7.05
2023-10-13T20:41:09.346Z,7.20
2023-10-13T20:43:39.357Z,7.57
2023-10-13T20:46:06.597Z,8.25
2023-10-13T20:48:33.265Z,7.65
2023-10-13T20:51:10.757Z,7.85
2023-10-13T20:53:38.433Z,8.27
2023-10-13T20:56:06.438Z,8.25
2023-10-13T20:58:33.367Z,8.00
2023-10-13T21:01:09.187Z,8.25
2023-10-13T21:03:38.871Z,7.53
2023-10-13T21:06:08.942Z,8.40
2023-10-13T21:08:38.776Z,9.50
2023-10-13T21:11:07.638Z,9.15
2023-10-13T21:13:37.223Z,9.63
2023-10-13T21:16:10.592Z,9.23
2023-10-13T21:18:44.539Z,10.05
2023-10-13T21:21:20.565Z,8.80
2023-10-13T21:23:54.786Z,9.20
2023-10-13T21:26:22.865Z,9.02
2023-10-13T21:28:52.790Z,8.88
2023-10-13T21:31:21.561Z,8.80
2023-10-13T21:33:49.317Z,8.93
2023-10-13T21:36:16.939Z,9.18
2023-10-13T21:38:49.173Z,8.95
2023-10-13T21:41:22.251Z,9.75
2023-10-13T21:43:54.336Z,9.07
2023-10-13T21:46:23.095Z,9.20
2023-10-13T21:48:50.489Z,9.30
2023-10-13T21:51:19.558Z,8.70
2023-10-13T21:53:49.888Z,9.07
2023-10-13T21:56:20.714Z,8.73
2023-10-13T21:58:48.968Z,9.73
2023-10-13T22:01:22.012Z,9.63
2023-10-13T22:03:52.692Z,9.95
2023-10-13T22:06:22.231Z,10.07
2023-10-13T22:08:48.980Z,9.63
2023-10-13T22:11:18.250Z,9.73
2023-10-13T22:13:49.368Z,9.48
2023-10-13T22:16:17.942Z,10.18
2023-10-13T22:18:47.141Z,10.02
2023-10-13T22:21:15.254Z,9.55
2023-10-13T22:23:42.176Z,9.30
2023-10-13T22:26:15.840Z,9.43
2023-10-13T22:28:46.966Z,8.50
2023-10-13T22:31:17.085Z,9.25
2023-10-13T22:33:45.779Z,8.90
2023-10-13T22:36:15.484Z,8.52
2023-10-13T22:38:42.328Z,8.73
2023-10-13T22:41:12.890Z,8.70
2023-10-13T22:43:42.683Z,8.82
2023-10-13T22:46:09.274Z,8.25
2023-10-13T22:48:36.037Z,8.50
2023-10-13T22:51:03.470Z,9.00
2023-10-13T22:53:30.864Z,8.20
2023-10-13T22:55:59.456Z,7.95
2023-10-13T22:58:25.918Z,8.27
2023-10-13T23:00:55.211Z,7.85
2023-10-13T23:03:22.981Z,8.02
2023-10-13T23:05:52.902Z,8.95
2023-10-13T23:08:28.499Z,8.60
2023-10-13T23:10:54.903Z,8.55
2023-10-13T23:13:21.623Z,7.65
2023-10-13T23:15:50.060Z,8.10
2023-10-13T23:18:19.572Z,7.90
2023-10-13T23:20:51.752Z,8.07
2023-10-13T23:23:18.327Z,8.68
2023-10-13T23:25:44.769Z,8.40
2023-10-13T23:28:22.099Z,8.85
2023-10-13T23:30:56.658Z,8.32
2023-10-13T23:33:24.136Z,8.90
2023-10-13T23:35:51.187Z,8.65
2023-10-13T23:38:17.974Z,8.60
2023-10-13T23:40:45.718Z,8.32
2023-10-13T23:43:20.379Z,7.95
2023-10-13T23:46:00.108Z,8.50
2023-10-13T23:48:34.450Z,7.97
2023-10-13T23:51:02.528Z,7.93
2023-10-13T23:53:33.667Z,8.60
2023-10-13T23:56:09.573Z,8.20
2023-10-13T23:58:40.176Z,8.88
